Time;durP1;ratioP1;P1;durP2;ratioP2;P2;SDS_P1;SDS_P2;PMS_P1;PMS_P2;Temp;Humidity;BMP_temperature;BMP_pressure;BME280_temperature;BME280_humidity;BME280_pressure;Samples;Min_cycle;Max_cycle;Signal;HPM_P1;HPM_P2
2022/08/15 00:00:55;;;;;;;;;;;;;;;19.86;56.25;99931.00;5059733;28;19925;-77
2022/08/15 00:03:29;;;;;;;;;;;;;;;19.89;55.68;99936.06;5049785;28;19924;-77
2022/08/15 00:05:56;;;;;;;;;;;;;;;19.88;56.95;99939.69;5064239;28;19924;-77
2022/08/15 00:08:22;;;;;;;;;;;;;;;19.88;55.60;99945.75;5057872;28;19929;-77
2022/08/15 00:10:48;;;;;;;;;;;;;;;19.87;55.42;99941.47;5062650;28;19966;-77
2022/08/15 00:13:18;;;;;;;;;;;;;;;19.86;55.82;99945.03;5058020;28;20492;-77
2022/08/15 00:15:45;;;;;;;;;;;;;;;19.87;54.28;99943.25;5066347;28;19927;-77
2022/08/15 00:18:10;;;;;;;;;;;;;;;19.85;55.79;99948.63;5057130;28;19924;-77
2022/08/15 00:20:38;;;;;;;;;;;;;;;19.86;54.72;99944.19;5060062;28;19924;-78
2022/08/15 00:23:07;;;;;;;;;;;;;;;19.86;56.01;99954.75;5054585;28;19932;-78
2022/08/15 00:25:34;;;;;;;;;;;;;;;19.86;56.34;99946.81;5045139;28;19925;-78
2022/08/15 00:28:00;;;;;;;;;;;;;;;19.85;57.73;99948.63;5063399;28;19983;-78
2022/08/15 00:30:26;;;;;;;;;;;;;;;19.88;56.77;99950.22;5059955;28;19924;-78
2022/08/15 00:32:55;;;;;;;;;;;;;;;19.89;57.33;99958.00;5053926;28;20023;-78
2022/08/15 00:35:36;;;;;;;;;;;;;;;19.87;58.44;99956.44;5044025;28;19925;-77
2022/08/15 00:38:02;;;;;;;;;;;;;;;19.87;58.06;99952.00;5060681;28;19920;-77
2022/08/15 00:40:27;;;;;;;;;;;;;;;19.90;57.20;99943.88;5065876;28;19935;-77
2022/08/15 00:42:53;;;;;;;;;;;;;;;19.92;57.37;99941.97;5063428;28;19929;-77
2022/08/15 00:45:20;;;;;;;;;;;;;;;19.91;58.42;99939.41;5058933;28;19917;-77
2022/08/15 00:48:41;;;;;;;;;;;;;;;19.94;56.99;99947.09;5053129;28;20341;-77
2022/08/15 00:50:32;;;;;;;;;;;;;;;19.92;58.46;99949.88;5054976;28;20381;-77
2022/08/15 00:52:59;;;;;;;;;;;;;;;19.92;57.99;99947.22;5052567;28;19929;-77
2022/08/15 00:55:27;;;;;;;;;;;;;;;19.91;58.20;99947.31;5059610;28;19925;-77
2022/08/15 00:57:52;;;;;;;;;;;;;;;19.96;56.69;99942.59;5054073;28;20393;-77
2022/08/15 01:00:20;;;;;;;;;;;;;;;19.96;55.80;99942.59;5063616;28;19924;-77
2022/08/15 01:02:46;;;;;;;;;;;;;;;19.97;55.67;99939.81;5067048;28;19920;-77
2022/08/15 01:05:13;;;;;;;;;;;;;;;19.96;56.24;99945.22;5067344;28;19926;-77
2022/08/15 01:07:38;;;;;;;;;;;;;;;19.96;55.89;99942.59;5062338;28;20462;-78
2022/08/15 01:10:04;;;;;;;;;;;;;;;19.91;56.18;99944.69;5062128;28;19924;-78
2022/08/15 01:12:30;;;;;;;;;;;;;;;19.92;55.70;99944.59;5066060;28;19920;-78
2022/08/15 01:15:06;;;;;;;;;;;;;;;19.89;56.94;99946.59;5074215;28;20041;-78
2022/08/15 01:17:32;;;;;;;;;;;;;;;19.87;55.97;99949.38;5059362;28;19927;-78
2022/08/15 01:20:04;;;;;;;;;;;;;;;19.85;56.26;99956.53;5058703;28;19921;-78
2022/08/15 01:22:38;;;;;;;;;;;;;;;19.85;56.40;99953.06;5065655;28;19928;-78
2022/08/15 01:25:11;;;;;;;;;;;;;;;19.87;55.58;99949.38;5054791;28;19925;-78
2022/08/15 01:27:50;;;;;;;;;;;;;;;19.86;55.43;99947.69;5066471;28;19989;-78
2022/08/15 01:30:17;;;;;;;;;;;;;;;19.87;55.39;99949.38;5053279;28;20399;-78
2022/08/15 01:32:43;;;;;;;;;;;;;;;19.87;55.15;99951.16;5053669;28;19975;-78
2022/08/15 01:35:09;;;;;;;;;;;;;;;19.89;55.37;99954.50;5060193;28;19964;-77
2022/08/15 01:37:36;;;;;;;;;;;;;;;19.86;55.36;99958.22;5073221;28;20015;-77
2022/08/15 01:40:11;;;;;;;;;;;;;;;19.87;55.43;99953.78;5064235;28;20335;-77
2022/08/15 01:42:41;;;;;;;;;;;;;;;19.86;54.97;99958.22;5064975;28;19917;-77
2022/08/15 01:45:14;;;;;;;;;;;;;;;19.87;55.51;99967.81;5058949;28;19921;-77
2022/08/15 01:47:52;;;;;;;;;;;;;;;19.86;56.21;99966.13;5058080;28;19971;-77
2022/08/15 01:50:18;;;;;;;;;;;;;;;19.87;54.86;99967.81;5054894;28;19924;-77
2022/08/15 01:52:43;;;;;;;;;;;;;;;19.88;55.09;99969.47;5049955;28;19929;-77
2022/08/15 01:55:09;;;;;;;;;;;;;;;19.91;54.66;99961.34;5054038;28;20000;-77
2022/08/15 01:57:34;;;;;;;;;;;;;;;19.93;53.91;99964.75;5062223;28;19963;-77
2022/08/15 02:00:00;;;;;;;;;;;;;;;19.92;54.95;99959.56;5063688;28;19924;-77
2022/08/15 02:02:26;;;;;;;;;;;;;;;19.92;55.62;99956.94;5054027;28;19975;-77
2022/08/15 02:04:52;;;;;;;;;;;;;;;19.90;55.42;99958.84;5061673;28;19920;-77
2022/08/15 02:07:20;;;;;;;;;;;;;;;19.87;56.31;99959.91;5050975;28;19948;-77
2022/08/15 02:09:46;;;;;;;;;;;;;;;19.85;56.93;99961.78;5052323;28;20253;-78
2022/08/15 02:12:13;;;;;;;;;;;;;;;19.85;57.54;99974.97;5052389;28;19971;-77
2022/08/15 02:14:41;;;;;;;;;;;;;;;19.85;57.72;99974.97;5059248;28;19957;-77
2022/08/15 02:17:08;;;;;;;;;;;;;;;19.84;57.68;99975.94;5058707;28;20428;-77
2022/08/15 02:19:34;;;;;;;;;;;;;;;19.85;57.30;99971.53;5066929;28;20343;-77
2022/08/15 02:21:59;;;;;;;;;;;;;;;19.85;56.98;99963.63;5057799;28;19924;-77
2022/08/15 02:24:24;;;;;;;;;;;;;;;19.89;55.82;99963.28;5044937;28;20305;-77
2022/08/15 02:26:51;;;;;;;;;;;;;;;19.90;55.42;99959.69;5044118;28;20018;-77
2022/08/15 02:29:17;;;;;;;;;;;;;;;19.93;55.22;99961.25;5060011;28;19925;-77
2022/08/15 02:31:42;;;;;;;;;;;;;;;19.92;55.41;99954.28;5055725;28;19920;-77
2022/08/15 02:34:08;;;;;;;;;;;;;;;19.90;56.43;99958.84;5067471;28;20303;-77
2022/08/15 02:36:34;;;;;;;;;;;;;;;19.90;56.17;99948.31;5056998;28;20329;-77
2022/08/15 02:39:02;;;;;;;;;;;;;;;19.92;55.64;99949.03;5056987;28;19923;-77
2022/08/15 02:41:33;;;;;;;;;;;;;;;19.92;55.41;99949.03;5058707;28;19921;-77
2022/08/15 02:43:59;;;;;;;;;;;;;;;19.91;55.85;99945.53;5053555;28;19921;-77
2022/08/15 02:46:25;;;;;;;;;;;;;;;19.92;55.29;99947.22;5064172;28;19924;-77
2022/08/15 02:48:51;;;;;;;;;;;;;;;19.99;53.53;99931.81;5055636;28;20392;-77
2022/08/15 02:51:18;;;;;;;;;;;;;;;20.02;51.94;99932.44;5050125;28;20401;-77
2022/08/15 02:53:45;;;;;;;;;;;;;;;20.03;52.73;99931.47;5056326;28;20297;-77
2022/08/15 02:56:11;;;;;;;;;;;;;;;20.05;52.28;99929.59;5064140;28;19989;-77
2022/08/15 02:58:36;;;;;;;;;;;;;;;20.06;51.63;99933.88;5052087;28;20016;-77
2022/08/15 03:01:09;;;;;;;;;;;;;;;20.05;51.93;99932.22;5044459;28;20584;-77
2022/08/15 03:03:37;;;;;;;;;;;;;;;20.03;53.94;99934.09;5043873;28;19917;-77
2022/08/15 03:06:08;;;;;;;;;;;;;;;19.98;55.45;99938.88;5064505;28;19916;-77
2022/08/15 03:08:39;;;;;;;;;;;;;;;19.98;54.64;99940.66;5067609;28;19929;-77
2022/08/15 03:11:05;;;;;;;;;;;;;;;19.96;54.59;99927.63;5073992;23;19924;-79
2022/08/15 03:13:31;;;;;;;;;;;;;;;19.94;54.66;99928.66;5053108;28;19928;-79
2022/08/15 03:15:57;;;;;;;;;;;;;;;19.97;54.96;99925.78;5053231;28;19920;-79
2022/08/15 03:18:24;;;;;;;;;;;;;;;19.96;55.38;99930.25;5052329;28;19962;-79
2022/08/15 03:20:51;;;;;;;;;;;;;;;20.06;52.01;99917.22;5049438;28;19920;-79
2022/08/15 03:23:20;;;;;;;;;;;;;;;20.09;52.21;99915.22;5042556;28;19928;-79
2022/08/15 03:25:48;;;;;;;;;;;;;;;20.08;52.97;99910.94;5037839;28;20433;-79
2022/08/15 03:28:14;;;;;;;;;;;;;;;20.07;52.03;99905.72;5037254;28;19929;-79
2022/08/15 03:30:39;;;;;;;;;;;;;;;20.06;53.26;99904.88;5021590;28;20479;-79
2022/08/15 03:33:05;;;;;;;;;;;;;;;20.04;54.92;99916.50;5050790;28;19913;-79
2022/08/15 03:35:31;;;;;;;;;;;;;;;20.00;55.80;99907.97;5043006;28;19936;-79
2022/08/15 03:37:57;;;;;;;;;;;;;;;19.96;56.47;99914.44;5033864;28;19962;-79
2022/08/15 03:40:23;;;;;;;;;;;;;;;19.93;57.10;99916.44;5045023;28;19972;-79
2022/08/15 03:42:52;;;;;;;;;;;;;;;19.90;56.83;99914.03;5048606;28;19916;-79
2022/08/15 03:45:19;;;;;;;;;;;;;;;19.91;56.65;99918.34;5044256;28;20333;-79
2022/08/15 03:47:44;;;;;;;;;;;;;;;19.91;56.29;99923.59;5026007;28;19925;-79
2022/08/15 03:50:12;;;;;;;;;;;;;;;19.89;56.01;99915.81;5043766;28;19925;-79
2022/08/15 03:52:51;;;;;;;;;;;;;;;19.88;57.28;99922.03;5033113;28;19924;-79
2022/08/15 03:55:16;;;;;;;;;;;;;;;19.86;55.79;99918.69;5044006;28;19921;-80
2022/08/15 03:57:44;;;;;;;;;;;;;;;19.88;55.87;99915.94;5045934;28;20259;-79
2022/08/15 04:00:11;;;;;;;;;;;;;;;19.87;56.44;99928.28;5022568;28;19917;-79
2022/08/15 04:02:36;;;;;;;;;;;;;;;19.85;56.59;99927.53;5042918;28;20043;-79
2022/08/15 04:05:01;;;;;;;;;;;;;;;19.86;57.66;99931.00;5042500;28;20012;-79
2022/08/15 04:07:27;;;;;;;;;;;;;;;19.86;56.90;99923.09;5041411;28;19925;-79
2022/08/15 04:09:52;;;;;;;;;;;;;;;19.91;55.28;99918.34;5045688;28;19960;-79
2022/08/15 04:12:36;;;;;;;;;;;;;;;19.90;55.72;99917.53;5041198;28;19932;-79
2022/08/15 04:15:07;;;;;;;;;;;;;;;19.90;56.29;99927.22;5039280;28;19948;-79
2022/08/15 04:17:32;;;;;;;;;;;;;;;19.88;56.32;99932.59;5028287;28;19925;-80
2022/08/15 04:19:58;;;;;;;;;;;;;;;19.86;56.84;99937.13;5042245;28;19928;-79
2022/08/15 04:22:28;;;;;;;;;;;;;;;19.84;56.74;99938.19;5026271;28;19921;-79
2022/08/15 04:24:53;;;;;;;;;;;;;;;19.83;56.74;99942.63;5037104;28;19924;-79
2022/08/15 04:27:19;;;;;;;;;;;;;;;19.82;57.22;99943.56;5024319;28;19971;-79
2022/08/15 04:29:44;;;;;;;;;;;;;;;19.80;58.11;99948.97;5024331;28;19924;-79
2022/08/15 04:32:11;;;;;;;;;;;;;;;19.82;57.95;99951.47;5041572;28;19921;-80
2022/08/15 04:34:38;;;;;;;;;;;;;;;19.81;57.96;99949.81;5038483;28;19936;-79
2022/08/15 04:37:03;;;;;;;;;;;;;;;19.79;58.16;99951.69;5049686;28;19928;-79
2022/08/15 04:39:28;;;;;;;;;;;;;;;19.79;58.11;99952.53;5044490;28;19938;-79
2022/08/15 04:41:55;;;;;;;;;;;;;;;19.82;58.07;99958.56;5046764;28;20408;-79
2022/08/15 04:44:20;;;;;;;;;;;;;;;19.85;56.85;99950.44;5045921;28;20026;-79
2022/08/15 04:46:46;;;;;;;;;;;;;;;19.82;58.18;99948.84;5042063;28;20400;-79
2022/08/15 04:49:12;;;;;;;;;;;;;;;19.83;57.15;99952.31;5046929;28;20436;-79
2022/08/15 04:51:37;;;;;;;;;;;;;;;19.84;57.10;99951.38;5042064;28;19916;-79
2022/08/15 04:54:03;;;;;;;;;;;;;;;19.84;57.72;99951.38;5049664;28;20310;-79
2022/08/15 04:56:29;;;;;;;;;;;;;;;19.85;57.05;99951.25;5029769;28;20323;-79
2022/08/15 04:58:54;;;;;;;;;;;;;;;19.85;57.48;99940.72;5033680;28;19921;-79
2022/08/15 05:01:19;;;;;;;;;;;;;;;19.86;57.74;99949.47;5030129;28;20362;-79
2022/08/15 05:03:45;;;;;;;;;;;;;;;19.87;57.34;99945.88;5020164;28;19966;-79
2022/08/15 05:06:11;;;;;;;;;;;;;;;19.85;57.38;99951.25;5030147;28;19996;-79
2022/08/15 05:08:37;;;;;;;;;;;;;;;19.86;56.96;99954.75;5028389;28;19926;-79
2022/08/15 05:11:08;;;;;;;;;;;;;;;19.86;57.65;99958.22;5022890;28;19925;-79
2022/08/15 05:13:35;;;;;;;;;;;;;;;19.90;57.66;99958.84;5019010;28;19932;-79
2022/08/15 05:16:01;;;;;;;;;;;;;;;19.91;57.21;99960.50;5028337;28;20007;-79
2022/08/15 05:18:26;;;;;;;;;;;;;;;19.93;56.90;99956.84;5005563;28;20409;-80
2022/08/15 05:20:53;;;;;;;;;;;;;;;19.95;57.65;99960.19;5016814;28;19921;-79
2022/08/15 05:23:19;;;;;;;;;;;;;;;19.99;55.09;99956.41;5048718;28;20011;-79
2022/08/15 05:25:46;;;;;;;;;;;;;;;20.03;54.00;99957.84;5038496;28;19921;-79
2022/08/15 05:28:12;;;;;;;;;;;;;;;20.06;54.42;99954.13;5036455;28;19925;-79
2022/08/15 05:30:38;;;;;;;;;;;;;;;20.07;54.97;99963.72;5042811;28;19917;-79
2022/08/15 05:33:12;;;;;;;;;;;;;;;20.08;55.79;99968.09;5017538;28;20408;-79
2022/08/15 05:35:42;;;;;;;;;;;;;;;20.07;54.86;99964.56;5025120;28;19936;-79
2022/08/15 05:38:10;;;;;;;;;;;;;;;20.09;55.01;99960.06;5033114;28;20305;-80
2022/08/15 05:40:40;;;;;;;;;;;;;;;20.11;53.91;99965.22;5039144;28;19925;-79
2022/08/15 05:43:11;;;;;;;;;;;;;;;20.12;54.34;99959.84;5038549;28;19975;-80
2022/08/15 05:45:46;;;;;;;;;;;;;;;20.13;54.45;99965.94;5038416;28;19916;-79
2022/08/15 05:48:15;;;;;;;;;;;;;;;20.14;54.04;99971.13;5042160;28;19921;-79
2022/08/15 05:50:49;;;;;;;;;;;;;;;20.15;54.44;99972.78;5036126;28;20562;-79
2022/08/15 05:53:23;;;;;;;;;;;;;;;20.16;53.78;99971.84;5037225;28;19975;-79
2022/08/15 05:55:54;;;;;;;;;;;;;;;20.18;53.95;99969.09;5022534;28;19924;-79
2022/08/15 05:58:19;;;;;;;;;;;;;;;20.20;53.37;99961.94;5028665;28;19925;-79
2022/08/15 06:00:48;;;;;;;;;;;;;;;20.20;53.67;99975.94;5039578;28;20122;-79
2022/08/15 06:03:15;;;;;;;;;;;;;;;20.21;53.86;99972.34;5044894;28;20004;-79
2022/08/15 06:05:45;;;;;;;;;;;;;;;20.21;54.18;99972.34;5018689;28;19994;-79
2022/08/15 06:08:14;;;;;;;;;;;;;;;20.23;54.18;99970.44;5022078;28;19925;-79
2022/08/15 06:10:42;;;;;;;;;;;;;;;20.24;54.24;99969.47;5043596;28;19927;-79
2022/08/15 06:13:22;;;;;;;;;;;;;;;20.30;53.36;99968.19;5021770;28;19921;-79
2022/08/15 06:15:54;;;;;;;;;;;;;;;20.30;53.81;99965.56;5019128;28;19936;-79
2022/08/15 06:18:20;;;;;;;;;;;;;;;20.29;53.77;99972.63;5039281;28;19959;-80
2022/08/15 06:21:04;;;;;;;;;;;;;;;20.33;53.65;99966.16;5039205;28;19928;-79
2022/08/15 06:23:40;;;;;;;;;;;;;;;20.38;54.07;99972.91;5039421;28;19921;-79
2022/08/15 06:26:22;;;;;;;;;;;;;;;20.40;54.13;99971.00;5039343;28;19995;-79
2022/08/15 06:28:47;;;;;;;;;;;;;;;20.41;54.04;99965.63;5046330;28;20016;-80
2022/08/15 06:31:20;;;;;;;;;;;;;;;20.44;53.91;99969.81;5044627;28;20066;-79
2022/08/15 06:33:48;;;;;;;;;;;;;;;20.43;54.03;99966.34;5040585;28;19924;-79
2022/08/15 06:36:20;;;;;;;;;;;;;;;20.49;54.02;99970.31;5045849;28;19931;-79
2022/08/15 06:39:01;;;;;;;;;;;;;;;20.49;53.79;99973.78;5042015;28;19921;-79
2022/08/15 06:41:45;;;;;;;;;;;;;;;20.46;54.05;99975.81;5042155;28;20373;-79
2022/08/15 06:44:10;;;;;;;;;;;;;;;20.53;53.51;99977.88;5046255;28;19928;-80
2022/08/15 06:46:37;;;;;;;;;;;;;;;20.59;53.13;99976.59;5035185;28;19920;-78
2022/08/15 06:49:05;;;;;;;;;;;;;;;20.69;52.67;99980.22;5043007;28;20007;-78
2022/08/15 06:51:31;;;;;;;;;;;;;;;20.70;52.79;99980.13;5039932;28;19977;-78
2022/08/15 06:53:58;;;;;;;;;;;;;;;20.67;53.12;99982.13;5022144;28;20305;-78
2022/08/15 06:56:30;;;;;;;;;;;;;;;20.66;53.15;99983.09;5021179;28;20612;-78
2022/08/15 06:59:08;;;;;;;;;;;;;;;20.67;53.60;99988.25;5040543;28;19927;-78
2022/08/15 07:01:42;;;;;;;;;;;;;;;20.76;52.81;99986.72;5041167;28;20277;-78
2022/08/15 07:04:26;;;;;;;;;;;;;;;20.64;53.17;99979.72;5042692;28;19921;-78
2022/08/15 07:07:04;;;;;;;;;;;;;;;20.72;52.74;99978.19;5040906;28;22585;-78
2022/08/15 07:09:30;;;;;;;;;;;;;;;20.68;52.98;99979.38;5034386;28;19932;-78
2022/08/15 07:12:01;;;;;;;;;;;;;;;20.74;52.35;99978.06;5042045;28;19962;-78
2022/08/15 07:14:32;;;;;;;;;;;;;;;20.72;52.63;99986.09;5039351;28;19939;-78
2022/08/15 07:17:05;;;;;;;;;;;;;;;20.68;53.00;99989.94;5042689;28;19927;-78
2022/08/15 07:19:31;;;;;;;;;;;;;;;20.66;52.93;99989.22;5037222;28;19928;-78
2022/08/15 07:21:56;;;;;;;;;;;;;;;20.73;52.72;99982.53;5035796;28;19921;-78
2022/08/15 07:24:27;;;;;;;;;;;;;;;20.71;52.68;99984.41;5039454;28;19917;-78
2022/08/15 07:26:55;;;;;;;;;;;;;;;20.71;52.87;99984.41;5042456;28;19976;-77
2022/08/15 07:29:29;;;;;;;;;;;;;;;20.64;53.43;99980.56;5038743;28;19970;-77
2022/08/15 07:32:09;;;;;;;;;;;;;;;20.65;52.76;99989.34;5041789;28;19956;-77
2022/08/15 07:34:35;;;;;;;;;;;;;;;20.66;52.82;99991.00;5038960;28;19924;-77
2022/08/15 07:37:03;;;;;;;;;;;;;;;20.71;53.15;99983.56;5043138;28;19955;-77
2022/08/15 07:39:34;;;;;;;;;;;;;;;20.62;53.04;99987.75;5036785;28;19924;-77
2022/08/15 07:42:08;;;;;;;;;;;;;;;20.68;53.38;99987.28;5047118;28;19943;-78
2022/08/15 07:44:34;;;;;;;;;;;;;;;20.67;52.92;99996.19;5041116;28;20007;-78
2022/08/15 07:47:08;;;;;;;;;;;;;;;20.70;52.71;100003.88;5027085;28;20316;-78
2022/08/15 07:49:34;;;;;;;;;;;;;;;20.63;53.41;100004.41;5024871;28;20258;-78
2022/08/15 07:52:05;;;;;;;;;;;;;;;20.69;53.06;100006.59;5005437;28;19929;-78
2022/08/15 07:54:30;;;;;;;;;;;;;;;20.67;53.08;100008.53;5031882;28;19931;-78
2022/08/15 07:56:58;;;;;;;;;;;;;;;20.68;53.75;100005.75;5026536;28;20008;-78
2022/08/15 07:59:31;;;;;;;;;;;;;;;20.72;52.91;99999.31;5022748;28;19925;-78
2022/08/15 08:02:14;;;;;;;;;;;;;;;20.68;52.88;100004.91;5032437;28;19968;-78
2022/08/15 08:04:39;;;;;;;;;;;;;;;20.68;53.32;100011.03;5019270;28;19949;-78
2022/08/15 08:07:20;;;;;;;;;;;;;;;20.69;52.59;100011.88;5025817;28;19980;-78
2022/08/15 08:10:17;;;;;;;;;;;;;;;20.70;53.49;100013.56;5027624;28;19929;-78
2022/08/15 08:12:58;;;;;;;;;;;;;;;20.71;52.98;99999.41;4963509;28;19928;-78
2022/08/15 08:15:27;;;;;;;;;;;;;;;20.70;53.71;100006.50;5016845;28;19917;-78
2022/08/15 08:17:59;;;;;;;;;;;;;;;20.84;52.99;100001.06;5047505;28;20007;-78
2022/08/15 08:20:24;;;;;;;;;;;;;;;20.82;52.55;100008.22;5037065;28;19925;-78
2022/08/15 08:23:08;;;;;;;;;;;;;;;20.78;53.45;100016.47;5035517;28;20043;-78
2022/08/15 08:26:03;;;;;;;;;;;;;;;20.72;54.06;100023.06;5030020;28;19929;-78
2022/08/15 08:28:38;;;;;;;;;;;;;;;20.69;53.79;100015.38;4960545;28;19973;-78
2022/08/15 08:31:07;;;;;;;;;;;;;;;20.73;53.70;100029.19;5053031;28;20015;-78
2022/08/15 08:33:51;;;;;;;;;;;;;;;20.75;53.90;100025.47;5042109;28;20008;-78
2022/08/15 08:36:23;;;;;;;;;;;;;;;20.79;53.95;100034.00;5046876;28;20012;-78
2022/08/15 08:38:58;;;;;;;;;;;;;;;20.75;53.95;100022.84;5046334;28;19992;-78
2022/08/15 08:41:33;;;;;;;;;;;;;;;20.77;54.22;100018.28;5041720;28;20377;-78
2022/08/15 08:44:11;;;;;;;;;;;;;;;20.87;53.68;100018.47;5033112;28;19924;-78
2022/08/15 08:46:55;;;;;;;;;;;;;;;20.87;53.87;100013.19;5029236;28;19948;-77
2022/08/15 08:49:25;;;;;;;;;;;;;;;20.91;53.62;100012.00;5028350;28;19925;-78
2022/08/15 08:51:57;;;;;;;;;;;;;;;20.87;54.14;100008.75;5011200;28;19975;-78
2022/08/15 08:54:35;;;;;;;;;;;;;;;20.90;54.37;100007.66;5020203;28;20422;-78
2022/08/15 08:57:03;;;;;;;;;;;;;;;20.97;54.07;100015.97;5035857;28;19922;-78
2022/08/15 09:00:01;;;;;;;;;;;;;;;20.88;54.18;100020.16;5039706;28;19925;-78
2022/08/15 09:02:29;;;;;;;;;;;;;;;20.84;53.82;100016.00;5003010;28;19975;-77
2022/08/15 09:04:59;;;;;;;;;;;;;;;20.90;54.71;100020.88;5013147;28;20011;-77
2022/08/15 09:07:30;;;;;;;;;;;;;;;20.87;53.67;100027.22;5036947;28;19927;-77
2022/08/15 09:09:58;;;;;;;;;;;;;;;20.87;53.54;100031.66;5046236;28;19921;-77
2022/08/15 09:15:14;;;;;;;;;;;;;;;20.88;54.43;100034.19;5040781;28;19935;-77
2022/08/15 09:17:42;;;;;;;;;;;;;;;20.85;54.02;100033.59;5026159;28;20372;-77
2022/08/15 09:20:10;;;;;;;;;;;;;;;20.95;53.15;100026.63;5039826;28;19921;-77
2022/08/15 09:22:36;;;;;;;;;;;;;;;20.93;53.75;100036.47;5047474;28;19936;-77
2022/08/15 09:25:01;;;;;;;;;;;;;;;20.86;54.02;100040.53;5039820;28;20799;-77
2022/08/15 09:27:32;;;;;;;;;;;;;;;20.90;53.76;100044.63;5042583;28;19917;-77
2022/08/15 09:30:03;;;;;;;;;;;;;;;20.87;54.53;100047.50;5046944;28;19921;-77
2022/08/15 09:32:28;;;;;;;;;;;;;;;20.82;55.25;100053.09;5043082;28;20215;-78
2022/08/15 09:35:05;;;;;;;;;;;;;;;20.90;54.50;100047.28;5045224;28;19931;-77
2022/08/15 09:37:49;;;;;;;;;;;;;;;20.89;54.89;100054.34;5036450;28;20000;-77
2022/08/15 09:40:33;;;;;;;;;;;;;;;20.91;55.89;100056.03;5042391;28;20059;-77
2022/08/15 09:43:13;;;;;;;;;;;;;;;20.97;54.94;100061.72;5039838;28;19928;-77
2022/08/15 09:45:51;;;;;;;;;;;;;;;20.93;55.18;100057.59;5042219;28;19962;-77
2022/08/15 09:48:16;;;;;;;;;;;;;;;20.98;55.69;100068.66;5032962;28;20403;-77
2022/08/15 09:51:00;;;;;;;;;;;;;;;21.00;54.73;100061.47;5049386;28;19925;-77
2022/08/15 09:53:35;;;;;;;;;;;;;;;20.97;55.01;100059.06;5041890;28;19956;-77
2022/08/15 09:56:06;;;;;;;;;;;;;;;21.08;54.79;100055.59;5029248;28;19917;-77
2022/08/15 09:58:35;;;;;;;;;;;;;;;21.01;55.29;100070.22;5023634;28;19970;-77
2022/08/15 10:01:03;;;;;;;;;;;;;;;20.97;55.17;100063.50;5036184;28;19986;-77
2022/08/15 10:03:43;;;;;;;;;;;;;;;20.95;55.23;100065.41;5039397;28;19921;-77
2022/08/15 10:06:11;;;;;;;;;;;;;;;20.97;55.53;100069.63;5038747;28;20377;-77
2022/08/15 10:08:54;;;;;;;;;;;;;;;20.99;55.69;100073.00;5025212;28;20384;-77
2022/08/15 10:11:43;;;;;;;;;;;;;;;20.95;55.89;100073.31;5037663;28;19927;-77
2022/08/15 10:14:25;;;;;;;;;;;;;;;20.93;56.04;100073.44;5036388;28;19925;-77
2022/08/15 10:16:55;;;;;;;;;;;;;;;20.95;56.30;100073.31;5040729;28;19921;-77
2022/08/15 10:19:34;;;;;;;;;;;;;;;20.87;55.63;100064.19;5041010;28;19928;-77
2022/08/15 10:22:21;;;;;;;;;;;;;;;20.86;57.01;100070.41;5045485;28;19921;-78
2022/08/15 10:25:06;;;;;;;;;;;;;;;20.86;57.54;100074.84;5019146;28;19917;-77
2022/08/15 10:27:52;;;;;;;;;;;;;;;20.88;57.79;100086.16;5043803;28;19917;-77
2022/08/15 10:30:17;;;;;;;;;;;;;;;20.81;57.70;100079.59;5041657;28;20011;-78
2022/08/15 10:32:43;;;;;;;;;;;;;;;20.79;58.65;100078.88;5035790;28;20425;-78
2022/08/15 10:35:20;;;;;;;;;;;;;;;20.77;59.45;100091.34;5036435;28;19924;-77
2022/08/15 10:37:51;;;;;;;;;;;;;;;20.72;60.10;100090.84;5041626;28;19921;-78
2022/08/15 10:40:37;;;;;;;;;;;;;;;20.72;60.48;100091.69;5035800;28;21812;-78
2022/08/15 10:43:18;;;;;;;;;;;;;;;20.66;60.47;100093.94;5039443;28;19999;-78
2022/08/15 10:46:19;;;;;;;;;;;;;;;20.65;64.01;100105.47;5037815;28;20381;-78
2022/08/15 10:48:50;;;;;;;;;;;;;;;20.47;64.65;100104.97;4981228;28;19980;-77
2022/08/15 10:51:31;;;;;;;;;;;;;;;20.54;64.82;100110.66;5033867;28;19923;-77
2022/08/15 10:54:12;;;;;;;;;;;;;;;20.53;66.21;100111.63;5040392;28;19921;-77
2022/08/15 10:56:38;;;;;;;;;;;;;;;20.46;67.01;100110.38;5039639;28;19917;-77
2022/08/15 10:59:06;;;;;;;;;;;;;;;20.45;66.66;100113.94;5038285;28;19925;-77
2022/08/15 11:01:32;;;;;;;;;;;;;;;20.46;67.14;100105.09;5044487;28;20468;-77
2022/08/15 11:04:05;;;;;;;;;;;;;;;20.40;67.46;100110.81;5041047;28;19917;-77
2022/08/15 11:06:34;;;;;;;;;;;;;;;20.46;67.32;100105.94;5032494;28;19924;-77
2022/08/15 11:09:07;;;;;;;;;;;;;;;20.46;67.60;100105.94;5038738;28;20579;-77
2022/08/15 11:11:37;;;;;;;;;;;;;;;20.35;66.13;100103.25;5036136;28;19921;-77
2022/08/15 11:14:08;;;;;;;;;;;;;;;20.42;66.56;100099.19;5051046;28;19978;-77
2022/08/15 11:16:36;;;;;;;;;;;;;;;20.48;66.41;100097.91;5053201;28;19925;-78
2022/08/15 11:19:13;;;;;;;;;;;;;;;20.48;66.65;100100.53;5063179;28;20019;-77
2022/08/15 11:21:39;;;;;;;;;;;;;;;20.52;66.16;100107.28;5046489;28;19971;-77
2022/08/15 11:24:06;;;;;;;;;;;;;;;20.52;65.27;100105.50;5045327;28;19927;-77
2022/08/15 11:26:33;;;;;;;;;;;;;;;20.60;65.70;100113.69;5031451;28;19984;-77
2022/08/15 11:29:08;;;;;;;;;;;;;;;20.64;65.88;100116.97;5029975;28;19932;-77
2022/08/15 11:31:42;;;;;;;;;;;;;;;20.63;65.97;100120.53;5042403;28;20309;-77
2022/08/15 11:34:16;;;;;;;;;;;;;;;20.67;65.17;100120.22;5052750;28;19971;-77
2022/08/15 11:36:42;;;;;;;;;;;;;;;20.71;64.55;100116.38;5051725;28;19916;-77
2022/08/15 11:39:12;;;;;;;;;;;;;;;20.72;65.54;100120.72;5046786;28;19925;-77
2022/08/15 11:41:39;;;;;;;;;;;;;;;20.72;65.20;100118.06;5037585;28;19921;-77
2022/08/15 11:44:06;;;;;;;;;;;;;;;20.77;66.66;100115.09;5046178;28;20391;-77
2022/08/15 11:46:32;;;;;;;;;;;;;;;20.81;66.13;100116.56;5036467;28;20031;-77
2022/08/15 11:49:08;;;;;;;;;;;;;;;20.81;65.46;100120.03;5022292;28;20020;-77
2022/08/15 11:51:35;;;;;;;;;;;;;;;20.84;65.25;100125.13;5020847;28;19931;-77
2022/08/15 11:54:12;;;;;;;;;;;;;;;20.85;65.47;100110.13;5032053;28;19917;-77
2022/08/15 11:56:56;;;;;;;;;;;;;;;20.85;64.31;100118.06;5040676;28;19928;-77
2022/08/15 11:59:21;;;;;;;;;;;;;;;20.86;65.03;100117.09;5039330;28;19927;-77
2022/08/15 12:02:05;;;;;;;;;;;;;;;20.91;64.85;100112.34;5044560;28;20365;-78
2022/08/15 12:04:33;;;;;;;;;;;;;;;20.90;64.14;100105.34;5046415;28;19921;-78
2022/08/15 12:07:04;;;;;;;;;;;;;;;20.95;63.87;100105.00;5049414;28;20016;-77
2022/08/15 12:09:31;;;;;;;;;;;;;;;20.94;63.43;100106.81;5045480;28;19921;-78
2022/08/15 12:11:58;;;;;;;;;;;;;;;20.95;63.45;100108.50;5038545;28;19951;-77
2022/08/15 12:14:25;;;;;;;;;;;;;;;20.98;62.60;100104.78;5036257;28;20008;-77
2022/08/15 12:16:50;;;;;;;;;;;;;;;20.96;63.26;100107.53;5030721;28;19996;-77
2022/08/15 12:19:29;;;;;;;;;;;;;;;21.08;62.35;100097.84;5045105;28;20016;-78
2022/08/15 12:21:56;;;;;;;;;;;;;;;21.08;61.85;100105.78;5041931;28;19921;-77
2022/08/15 12:24:23;;;;;;;;;;;;;;;21.14;61.21;100103.53;5042618;28;20455;-77
2022/08/15 12:26:49;;;;;;;;;;;;;;;21.11;61.47;100103.75;5043627;28;19924;-77
2022/08/15 12:29:21;;;;;;;;;;;;;;;21.11;61.40;100105.56;5041862;28;19925;-77
2022/08/15 12:31:47;;;;;;;;;;;;;;;21.06;60.43;100113.84;5046571;28;20007;-77
2022/08/15 12:34:13;;;;;;;;;;;;;;;21.14;60.60;100110.59;5046989;28;19921;-77
2022/08/15 12:36:40;;;;;;;;;;;;;;;21.08;60.24;100103.16;5047360;28;19913;-78
2022/08/15 12:39:06;;;;;;;;;;;;;;;21.19;60.50;100104.00;5041045;28;19917;-77
2022/08/15 12:41:31;;;;;;;;;;;;;;;21.18;60.54;100102.34;5032830;28;19971;-77
2022/08/15 12:43:57;;;;;;;;;;;;;;;21.18;60.13;100106.78;5045953;28;19924;-77
2022/08/15 12:46:22;;;;;;;;;;;;;;;21.22;60.71;100101.16;5023620;28;19960;-78
2022/08/15 12:48:48;;;;;;;;;;;;;;;21.21;60.37;100096.81;5050892;28;19927;-78
2022/08/15 12:51:14;;;;;;;;;;;;;;;21.26;59.32;100097.31;5043067;28;20451;-78
2022/08/15 12:53:40;;;;;;;;;;;;;;;21.29;59.30;100086.53;5028506;28;20400;-77
2022/08/15 12:56:08;;;;;;;;;;;;;;;21.26;59.96;100099.97;5027588;28;19924;-77
2022/08/15 12:58:35;;;;;;;;;;;;;;;21.30;59.06;100085.53;5045250;28;19975;-77
2022/08/15 13:01:00;;;;;;;;;;;;;;;21.29;59.67;100077.75;5042513;28;19948;-77